createdAt,value
2022-09-17T00:03:53.293Z,70.81
2022-09-17T00:07:58.269Z,70.34
2022-09-17T00:12:04.228Z,70.86
2022-09-17T00:16:08.077Z,71.16
2022-09-17T00:20:12.311Z,71.13
2022-09-17T00:24:18.370Z,70.93
2022-09-17T00:28:21.543Z,71.54
2022-09-17T00:32:25.356Z,71.60
2022-09-17T00:36:29.339Z,71.15
2022-09-17T00:40:33.786Z,71.10
2022-09-17T00:44:44.826Z,71.31
2022-09-17T00:48:48.835Z,71.85
2022-09-17T00:52:57.055Z,71.84
2022-09-17T00:57:01.778Z,71.61
2022-09-17T01:01:06.576Z,71.90
2022-09-17T01:05:12.024Z,72.09
2022-09-17T01:09:29.771Z,72.20
2022-09-17T01:13:44.619Z,72.10
2022-09-17T01:18:00.183Z,72.15
2022-09-17T01:22:08.107Z,72.15
2022-09-17T01:26:31.101Z,72.49
2022-09-17T01:35:06.972Z,72.54
2022-09-17T01:39:19.476Z,72.31
2022-09-17T01:43:29.298Z,72.06
2022-09-17T01:47:36.584Z,72.25
2022-09-17T01:51:45.601Z,72.25
2022-09-17T01:55:51.922Z,72.13
2022-09-17T02:00:01.936Z,72.51
2022-09-17T02:04:12.588Z,72.60
2022-09-17T02:08:21.987Z,72.72
2022-09-17T02:12:33.533Z,73.01
2022-09-17T02:16:39.154Z,73.07
2022-09-17T02:20:47.696Z,73.06
2022-09-17T02:25:02.904Z,72.92
2022-09-17T02:29:11.008Z,73.21
2022-09-17T02:33:16.205Z,72.90
2022-09-17T02:37:19.551Z,72.45
2022-09-17T02:41:27.210Z,72.56
2022-09-17T02:45:46.761Z,72.37
2022-09-17T02:50:08.421Z,72.31
2022-09-17T02:54:20.123Z,72.07
2022-09-17T02:58:29.800Z,72.59
2022-09-17T03:02:38.318Z,72.79
2022-09-17T03:06:43.349Z,72.79
2022-09-17T03:10:47.917Z,72.80
2022-09-17T03:14:52.832Z,72.57
2022-09-17T03:18:55.821Z,72.58
2022-09-17T03:22:59.119Z,72.52
2022-09-17T03:27:02.574Z,72.77
2022-09-17T03:31:07.588Z,72.46
2022-09-17T03:35:11.142Z,72.03
2022-09-17T03:39:14.826Z,72.31
2022-09-17T03:43:17.846Z,72.27
2022-09-17T03:47:22.572Z,72.02
2022-09-17T03:51:26.111Z,71.82
2022-09-17T03:55:29.052Z,72.04
2022-09-17T03:59:32.499Z,71.83
2022-09-17T04:03:37.448Z,71.98
2022-09-17T04:07:41.360Z,72.05
2022-09-17T04:11:44.932Z,72.06
2022-09-17T04:15:49.265Z,72.21
2022-09-17T04:19:53.642Z,72.04
2022-09-17T04:23:57.071Z,72.44
2022-09-17T04:28:00.470Z,72.36
2022-09-17T04:32:03.994Z,72.33
2022-09-17T04:36:08.828Z,72.22
2022-09-17T04:40:12.532Z,72.03
2022-09-17T04:44:15.654Z,72.07
2022-09-17T04:48:19.357Z,72.18
2022-09-17T04:52:28.891Z,71.81
2022-09-17T04:56:34.139Z,71.63
2022-09-17T05:00:37.714Z,71.47
2022-09-17T05:04:41.261Z,71.71
2022-09-17T05:08:45.967Z,71.65
2022-09-17T05:12:51.139Z,71.60
2022-09-17T05:16:54.083Z,71.23
2022-09-17T05:20:59.732Z,70.73
2022-09-17T05:25:04.737Z,71.08
2022-09-17T05:29:08.066Z,71.14
2022-09-17T05:33:11.888Z,71.23
2022-09-17T05:37:15.338Z,70.77
2022-09-17T05:41:20.133Z,70.40
2022-09-17T05:45:23.646Z,70.04
2022-09-17T05:49:27.373Z,68.74
2022-09-17T05:53:30.473Z,69.79
2022-09-17T05:57:35.245Z,69.85
2022-09-17T06:01:38.684Z,69.18
2022-09-17T06:05:42.411Z,68.61
2022-09-17T06:09:46.111Z,68.46
2022-09-17T06:13:55.399Z,69.26
2022-09-17T06:17:58.485Z,69.09
2022-09-17T06:22:02.408Z,68.19
2022-09-17T06:26:07.120Z,68.10
2022-09-17T06:30:12.586Z,68.38
2022-09-17T06:34:16.113Z,67.93
2022-09-17T06:38:19.191Z,66.59
2022-09-17T06:42:22.817Z,66.63
2022-09-17T06:46:27.943Z,66.58
2022-09-17T06:50:31.312Z,66.90
2022-09-17T06:54:34.738Z,67.56
2022-09-17T06:58:39.258Z,66.84
2022-09-17T07:02:43.735Z,66.77
2022-09-17T07:06:48.710Z,65.81
2022-09-17T07:10:51.828Z,65.32
2022-09-17T07:14:55.338Z,65.39
2022-09-17T07:19:00.574Z,65.97
2022-09-17T07:23:03.643Z,64.98
2022-09-17T07:27:07.068Z,64.99
2022-09-17T07:31:15.917Z,64.99
2022-09-17T07:35:21.304Z,65.27
2022-09-17T07:39:24.333Z,64.25
2022-09-17T07:43:28.310Z,65.20
2022-09-17T07:47:31.787Z,64.88
2022-09-17T07:51:36.237Z,63.52
2022-09-17T07:55:39.873Z,64.89
2022-09-17T07:59:43.308Z,64.50
2022-09-17T08:03:51.183Z,64.00
2022-09-17T08:07:57.036Z,64.88
2022-09-17T08:12:00.504Z,63.77
2022-09-17T08:16:06.185Z,63.85
2022-09-17T08:20:10.345Z,63.63
2022-09-17T08:24:15.648Z,62.14
2022-09-17T08:28:19.197Z,62.82
2022-09-17T08:32:22.311Z,62.24
2022-09-17T08:36:26.812Z,63.16
2022-09-17T08:40:32.089Z,63.06
2022-09-17T08:44:42.280Z,62.02
2022-09-17T08:48:52.218Z,61.84
2022-09-17T08:53:10.672Z,62.47
2022-09-17T08:57:22.010Z,63.22
2022-09-17T09:01:44.234Z,62.45
2022-09-17T09:05:52.531Z,60.81
2022-09-17T09:10:08.421Z,61.33
2022-09-17T09:14:21.597Z,61.75
2022-09-17T09:18:27.689Z,60.80
2022-09-17T09:22:48.212Z,58.78
2022-09-17T09:27:00.687Z,60.53
2022-09-17T09:31:20.638Z,59.85
2022-09-17T09:35:26.396Z,58.57
2022-09-17T09:39:40.308Z,60.05
2022-09-17T09:44:04.668Z,59.04
2022-09-17T09:48:17.322Z,59.08
2022-09-17T09:52:32.812Z,58.32
2022-09-17T09:56:57.295Z,58.45
2022-09-17T10:01:00.979Z,57.31
2022-09-17T10:05:12.274Z,58.28
2022-09-17T10:09:18.212Z,56.39
2022-09-17T10:13:22.289Z,57.51
2022-09-17T10:17:27.241Z,56.01
2022-09-17T10:21:36.567Z,55.20
2022-09-17T10:25:44.568Z,53.61
2022-09-17T10:29:51.306Z,54.72
2022-09-17T10:33:59.285Z,54.31
2022-09-17T10:38:05.518Z,53.71
2022-09-17T10:42:15.919Z,54.62
2022-09-17T10:46:26.785Z,52.79
2022-09-17T10:50:35.076Z,53.55
2022-09-17T10:55:14.840Z,54.45
2022-09-17T10:59:44.940Z,53.78
2022-09-17T11:04:15.758Z,55.13
2022-09-17T11:08:27.211Z,54.02
2022-09-17T11:12:45.661Z,54.10
2022-09-17T11:16:59.270Z,52.50
2022-09-17T11:21:19.464Z,53.24
2022-09-17T11:25:34.967Z,54.19
2022-09-17T11:30:17.308Z,54.98
2022-09-17T11:34:35.298Z,55.61
2022-09-17T11:38:46.471Z,57.65
2022-09-17T11:42:55.954Z,58.66
2022-09-17T11:47:07.050Z,59.52
2022-09-17T11:51:24.566Z,59.73
2022-09-17T11:55:32.659Z,59.70
2022-09-17T11:59:42.974Z,61.17
2022-09-17T12:03:54.538Z,61.08
2022-09-17T12:08:06.259Z,61.95
2022-09-17T12:12:31.765Z,61.82
2022-09-17T12:16:40.648Z,62.19
2022-09-17T12:20:49.640Z,61.57
2022-09-17T12:24:53.681Z,60.90
2022-09-17T12:29:07.610Z,61.04
2022-09-17T12:33:30.236Z,61.10
2022-09-17T12:37:42.900Z,59.08
2022-09-17T12:41:56.497Z,58.79
2022-09-17T12:46:19.803Z,59.07
2022-09-17T12:50:35.306Z,58.25
2022-09-17T12:55:01.129Z,58.83
2022-09-17T12:59:10.800Z,59.63
2022-09-17T13:03:22.888Z,60.19
2022-09-17T13:07:55.255Z,59.46
2022-09-17T13:12:22.324Z,59.41
2022-09-17T13:16:33.679Z,58.50
2022-09-17T13:20:45.116Z,59.02
2022-09-17T13:25:02.939Z,58.79
2022-09-17T13:29:10.160Z,59.64
2022-09-17T13:33:13.974Z,60.27
2022-09-17T13:37:21.618Z,60.02
2022-09-17T13:41:26.248Z,61.36
2022-09-17T13:45:32.277Z,62.42
2022-09-17T13:49:36.225Z,63.02
2022-09-17T13:53:40.135Z,63.47
2022-09-17T13:57:52.047Z,64.25
2022-09-17T14:02:31.144Z,64.00
2022-09-17T14:06:55.011Z,64.59
2022-09-17T14:11:06.538Z,64.47
2022-09-17T14:15:36.332Z,64.50
2022-09-17T14:19:51.803Z,64.74
2022-09-17T14:23:58.671Z,65.20
2022-09-17T14:28:08.299Z,65.08
2022-09-17T14:32:17.935Z,65.02
2022-09-17T14:36:24.832Z,65.33
2022-09-17T14:40:29.683Z,66.19
2022-09-17T14:44:35.425Z,66.38
2022-09-17T14:48:38.820Z,65.71
2022-09-17T14:52:49.565Z,65.83
2022-09-17T14:56:58.909Z,65.62
2022-09-17T15:01:02.259Z,66.09
2022-09-17T15:05:19.611Z,65.55
2022-09-17T15:09:27.843Z,65.82
2022-09-17T15:13:33.380Z,65.45
2022-09-17T15:17:36.618Z,66.10
2022-09-17T15:21:43.610Z,66.43
2022-09-17T15:25:49.840Z,66.42
2022-09-17T15:29:57.411Z,66.13
2022-09-17T15:34:02.712Z,66.74
2022-09-17T15:38:24.214Z,66.82
2022-09-17T15:42:30.747Z,66.80
2022-09-17T15:46:34.214Z,67.26
2022-09-17T15:50:52.211Z,67.04
2022-09-17T15:54:55.928Z,67.39
2022-09-17T15:59:04.926Z,67.23
2022-09-17T16:03:57.911Z,66.44
2022-09-17T16:08:19.120Z,66.32
2022-09-17T16:12:24.446Z,65.89
2022-09-17T16:16:35.009Z,65.52
2022-09-17T16:20:38.623Z,66.17
2022-09-17T16:24:41.553Z,65.25
2022-09-17T16:28:45.647Z,66.46
2022-09-17T16:32:50.749Z,66.39
2022-09-17T16:36:54.066Z,66.33
2022-09-17T16:40:57.694Z,66.90
2022-09-17T16:45:04.118Z,66.40
2022-09-17T16:49:08.523Z,66.82
2022-09-17T16:53:11.717Z,67.22
2022-09-17T16:57:15.123Z,67.50
2022-09-17T17:01:18.184Z,68.21
2022-09-17T17:05:23.442Z,68.49
2022-09-17T17:09:26.776Z,68.16
2022-09-17T17:13:29.859Z,67.88
2022-09-17T17:17:33.693Z,67.97
2022-09-17T17:21:38.741Z,68.44
2022-09-17T17:25:41.796Z,68.66
2022-09-17T17:29:45.373Z,69.18
2022-09-17T17:33:48.445Z,68.92
2022-09-17T17:37:53.345Z,68.45
2022-09-17T17:41:56.410Z,67.95
2022-09-17T17:46:00.132Z,67.88
2022-09-17T17:50:03.233Z,67.91
2022-09-17T17:54:08.574Z,67.25
2022-09-17T17:58:11.555Z,66.73
2022-09-17T18:02:15.189Z,66.72
2022-09-17T18:06:18.434Z,66.42
2022-09-17T18:10:24.747Z,66.70
2022-09-17T18:14:27.796Z,66.48
2022-09-17T18:18:34.826Z,66.82
2022-09-17T18:22:38.018Z,67.00
2022-09-17T18:26:42.766Z,66.35
2022-09-17T18:30:47.315Z,66.29
2022-09-17T18:34:51.699Z,66.13
2022-09-17T18:39:03.549Z,66.09
2022-09-17T18:43:15.916Z,66.23
2022-09-17T18:47:19.475Z,66.29
2022-09-17T18:51:24.021Z,66.83
2022-09-17T18:55:27.456Z,66.75
2022-09-17T18:59:32.252Z,67.27
2022-09-17T19:03:35.950Z,66.74
2022-09-17T19:07:40.032Z,66.88
2022-09-17T19:11:43.264Z,67.20
2022-09-17T19:15:48.867Z,67.44
2022-09-17T19:19:52.064Z,67.59
2022-09-17T19:23:55.785Z,67.60
2022-09-17T19:27:58.838Z,67.83
2022-09-17T19:32:04.161Z,67.82
2022-09-17T19:36:09.745Z,68.13
2022-09-17T19:40:13.827Z,68.31
2022-09-17T19:44:17.495Z,68.92
2022-09-17T19:48:25.208Z,69.12
2022-09-17T19:52:29.187Z,69.19
2022-09-17T19:56:32.302Z,69.94
2022-09-17T20:00:37.116Z,69.83
2022-09-17T20:04:42.355Z,69.61
2022-09-17T20:08:47.142Z,69.83
2022-09-17T20:12:50.849Z,69.52
2022-09-17T20:16:54.380Z,69.71
2022-09-17T20:20:58.767Z,69.67
2022-09-17T20:25:02.206Z,69.64
2022-09-17T20:29:05.566Z,69.75
2022-09-17T20:33:10.589Z,69.28
2022-09-17T20:37:15.482Z,69.64
2022-09-17T20:41:20.044Z,69.60
2022-09-17T20:45:36.153Z,69.54
2022-09-17T20:49:40.110Z,69.59
2022-09-17T20:53:46.011Z,69.76
2022-09-17T20:57:49.609Z,70.00
2022-09-17T21:01:54.294Z,70.25
2022-09-17T21:05:57.349Z,70.22
2022-09-17T21:10:02.181Z,70.46
2022-09-17T21:14:06.531Z,70.48
2022-09-17T21:18:09.930Z,70.40
2022-09-17T21:22:13.487Z,70.05
2022-09-17T21:26:20.115Z,69.70
2022-09-17T21:30:25.477Z,69.31
2022-09-17T21:34:28.591Z,69.56
2022-09-17T21:38:32.000Z,69.44
2022-09-17T21:42:39.284Z,69.30
2022-09-17T21:46:44.776Z,69.21
2022-09-17T21:50:48.278Z,69.14
2022-09-17T21:54:51.342Z,69.53
2022-09-17T21:58:57.558Z,69.15
2022-09-17T22:03:01.327Z,68.21
2022-09-17T22:07:05.045Z,68.45
2022-09-17T22:11:11.465Z,67.82
2022-09-17T22:15:16.483Z,68.06
2022-09-17T22:19:21.096Z,67.56
2022-09-17T22:23:24.889Z,67.82
2022-09-17T22:27:28.311Z,67.55
2022-09-17T22:31:33.323Z,67.07
2022-09-17T22:35:36.885Z,67.17
2022-09-17T22:39:40.389Z,67.12
2022-09-17T22:43:43.526Z,67.08
2022-09-17T22:47:48.509Z,67.36
2022-09-17T22:51:52.241Z,67.41
2022-09-17T22:55:56.804Z,68.05
2022-09-17T23:00:00.283Z,67.55
2022-09-17T23:04:06.602Z,67.21
2022-09-17T23:08:09.771Z,67.63
2022-09-17T23:12:13.169Z,67.42
2022-09-17T23:16:17.583Z,67.82
2022-09-17T23:20:22.378Z,68.40
2022-09-17T23:24:27.324Z,68.35
2022-09-17T23:28:30.428Z,68.61
2022-09-17T23:32:33.975Z,68.53
2022-09-17T23:36:40.753Z,68.43
2022-09-17T23:40:44.420Z,68.43
2022-09-17T23:44:47.472Z,67.71
2022-09-17T23:48:51.827Z,68.21
2022-09-17T23:52:56.440Z,68.62
2022-09-17T23:57:00.166Z,68.59
